Nearby METAR Reports

 

KFFZ - Mesa/Falcon Fld, Arizona, USA
Distance from station: ENE 9mi, 15km
Updated: Sun, 21-Oct-2018 3:54am MST
Clear
Clear
 Wind from calm
Wind: Calm
Temperature: 70°F , 21°C
Dew Point: 48°F , 9°C
Humidity: 46%
Barometer: 29.94 inHg , 1013.9 hPa
Clouds: Clear
Visibility: 10 miles , 16 km
2018/10/21 10:54 KFFZ 211054Z 00000KT 10SM CLR 21/09 A2994 RMK AO2 SLP115 T02110089 $
KIWA - Chandler/Mesa, Arizona, USA
Distance from station: ESE 14mi, 22km
Updated: Sun, 21-Oct-2018 4:15am MST
Partly Cloudy
Partly Cloudy
 Wind from ESE
Wind: ESE 18 mph , 30 km/h, Gust: 23 mph , 37 km/h
Temperature: 75°F , 24°C
Dew Point: 46°F , 8°C
Humidity: 36%
Barometer: 29.95 inHg , 1014.2 hPa
Clouds: Partly Cloudy
Visibility: 10 miles , 16 km
Cloud details: Partly Cloudy 11000 ft
2018/10/21 11:15 KIWA 211115Z AUTO 11016G20KT 10SM SCT110 24/08 A2995 RMK AO2 T02420080
 
KFLG - Flagstaff, Arizona, USA
Distance from station: N 120mi, 193km
Updated: Sun, 21-Oct-2018 3:57am MST
Clear
Clear
 Wind from NE
Wind: NE 3 mph , 6 km/h
Temperature: 37°F , 3°C
Dew Point: 36°F , 2°C
Humidity: 93%
Barometer: 30.27 inHg , 1025.1 hPa
Clouds: Clear
Visibility: 10 miles , 16 km
2018/10/21 10:57 KFLG 211057Z AUTO 04003KT 10SM CLR 03/02 A3027 RMK AO2 SLP191 T00280017
KTUS - Tucson, Arizona, USA
Distance from station: SSE 102mi, 164km
Updated: Sun, 21-Oct-2018 3:53am MST
Mostly Cloudy
Mostly Cloudy
 Wind from ESE
Wind: ESE 16 mph , 26 km/h, Gust: 29 mph , 46 km/h
Temperature: 70°F , 21°C
Dew Point: 48°F , 9°C
Humidity: 46%
Barometer: 30.05 inHg , 1017.6 hPa
Clouds: Mostly Cloudy
Visibility: 10 miles , 16 km
Cloud details: Mostly Cloudy 9000 ft
2018/10/21 10:53 KTUS 211053Z 12014G25KT 10SM BKN090 21/09 A3005 RMK AO2 SLP134 T02060089
 
KSOW - Show Low Municip, Arizona, USA
Distance from station: ENE 122mi, 196km
Updated: Sun, 21-Oct-2018 4:15am MST
Clear
Clear
 Wind from S
Wind: S 7 mph , 11 km/h
Temperature: 43°F , 6°C
Wind Chill: 39°F , 4°C
Dew Point: 39°F , 4°C
Humidity: 87%
Barometer: 30.29 inHg , 1025.7 hPa
Clouds: Clear
Visibility: 10 miles , 16 km
2018/10/21 11:15 KSOW 211115Z AUTO 17006KT 10SM CLR 06/04 A3029 RMK AO2
KINW - Winslow, Arizona, USA
Distance from station: NNE 130mi, 209km
Updated: Sun, 21-Oct-2018 3:56am MST
Clear
Clear
 Wind from NE
Wind: NE 7 mph , 11 km/h
Temperature: 52°F , 11°C
Dew Point: 43°F , 6°C
Humidity: 72%
Barometer: 30.22 inHg , 1023.4 hPa
Clouds: Clear
Visibility: 10 miles , 16 km
2018/10/21 10:56 KINW 211056Z AUTO 05006KT 10SM CLR 11/06 A3022 RMK AO2 SLP184 T01060061
 
KPRC - Prescott, Arizona, USA
Distance from station: NNW 92mi, 148km
Updated: Sun, 21-Oct-2018 3:53am MST
Clear
Clear
 Wind from varies
Wind: varies 3 mph , 6 km/h
Temperature: 57°F , 14°C
Dew Point: 43°F , 6°C
Humidity: 59%
Barometer: 30.15 inHg , 1021 hPa
Clouds: Clear
Visibility: 10 miles , 16 km
2018/10/21 10:53 KPRC 211053Z AUTO VRB03KT 10SM CLR 14/06 A3015 RMK AO2 SLP143 T01390061
KPAN - Payson, Arizona, USA
Distance from station: NNE 66mi, 106km
Updated: Sun, 21-Oct-2018 4:15am MST
Clear
Clear
 Wind from E
Wind: E 7 mph , 11 km/h, Gust: 13 mph , 20 km/h
Temperature: 55°F , 13°C
Dew Point: 41°F , 5°C
Humidity: 59%
Barometer: 30.21 inHg , 1023 hPa
Clouds: Clear
Visibility: 10 miles , 16 km
2018/10/21 11:15 KPAN 211115Z AUTO 10006G11KT 10SM CLR 13/05 A3021 RMK AO2
 
KSEZ - Sedona, Arizona, USA
Distance from station: N 100mi, 161km
Updated: Sun, 21-Oct-2018 4:15am MST
Partly Cloudy
Partly Cloudy
 Wind from ENE
Wind: ENE 13 mph , 20 km/h
Temperature: 61°F , 16°C
Dew Point: 43°F , 6°C
Humidity: 52%
Barometer: 30.17 inHg , 1021.7 hPa
Clouds: Partly Cloudy
Visibility: 10 miles , 16 km
Cloud details: Partly Cloudy 5500 ft
2018/10/21 11:15 KSEZ 211115Z AUTO 07011KT 10SM SCT055 16/06 A3017 RMK AO2
KSAD - Safford, Arizona, USA
Distance from station: ESE 150mi, 241km
Updated: Sun, 21-Oct-2018 3:51am MST
Overcast
Overcast
 Wind from E
Wind: E 14 mph , 22 km/h
Temperature: 63°F , 17°C
Dew Point: 45°F , 7°C
Humidity: 52%
Barometer: 30.20 inHg , 1022.7 hPa
Clouds: Overcast
Visibility: 10 miles , 16 km
Cloud details: Overcast 4600 ft
2018/10/21 10:51 KSAD 211051Z AUTO 10012KT 10SM OVC046 17/07 A3020 RMK AO2 SLP184 T01720067